This is the latest recevied weather packets stored in our database for station/object KV9E. If no packets are shown the sender has not sent any weather packets the latest 10 day(s).
| Time | Temp. | Humidity | Pressure | Rain* | Wind** | Luminosity | Snow |
|---|---|---|---|---|---|---|---|
| 1778355432 | 20° C | 73% | 1010.9 hPa | 0 mm | - | 709 W/m² | - |
| 1778355132 | 19.44° C | 69% | 1011 hPa | 0 mm | - | 699 W/m² | - |
| 1778354829 | 20.56° C | 69% | 1011.2 hPa | 0 mm | - | 126 W/m² | - |
| 1778354524 | 21.11° C | 67% | 1011.1 hPa | 0 mm | - | 152 W/m² | - |
| 1778354219 | 20° C | 69% | 1011.1 hPa | 0 mm | - | 725 W/m² | - |
| 1778353916 | 19.44° C | 73% | 1011.2 hPa | 0 mm | - | 708 W/m² | - |
| 1778353612 | 20° C | 71% | 1011.1 hPa | 0 mm | - | 735 W/m² | - |
| 1778353309 | 19.44° C | 72% | 1011.2 hPa | 0 mm | - | 228 W/m² | - |
| 1778353007 | 19.44° C | 71% | 1011.1 hPa | 0 mm | - | 167 W/m² | - |
| 1778352703 | 19.44° C | 70% | 1010.9 hPa | 0 mm | - | 492 W/m² | - |
| 1778352401 | 19.44° C | 72% | 1011.1 hPa | 0 mm | - | 384 W/m² | - |
| 1778352097 | 19.44° C | 71% | 1011 hPa | 0 mm | - | 168 W/m² | - |
| 1778351794 | 20° C | 70% | 1010.9 hPa | 0 mm | - | 202 W/m² | - |
| 1778351489 | 20° C | 68% | 1010.7 hPa | 0 mm | - | 784 W/m² | - |
| 1778351185 | 19.44° C | 71% | 1010.7 hPa | 0 mm | - | 198 W/m² | - |
| 1778350882 | 19.44° C | 72% | 1010.9 hPa | 0 mm | - | 189 W/m² | - |
| 1778350580 | 19.44° C | 71% | 1010.4 hPa | 0 mm | - | 843 W/m² | - |
| 1778350278 | 20° C | 70% | 1010.6 hPa | 0 mm | - | 754 W/m² | - |
| 1778349974 | 20° C | 69% | 1010.6 hPa | 0 mm | - | 729 W/m² | - |
| 1778349671 | 18.89° C | 73% | 1010.6 hPa | 0 mm | - | 344 W/m² | - |
| 1778349366 | 18.33° C | 72% | 1011 hPa | 0 mm | - | 784 W/m² | - |
| 1778349063 | 18.33° C | 74% | 1010.6 hPa | 0 mm | - | 822 W/m² | - |
| 1778348754 | 18.33° C | 75% | 1010.6 hPa | 0 mm | - | 181 W/m² | - |
| 1778348449 | 18.89° C | 73% | 1010.6 hPa | 0 mm | - | 164 W/m² | - |
| 1778348144 | 19.44° C | 71% | 1010.8 hPa | 0 mm | - | 548 W/m² | - |
* Rain latest hour (hover to see other rain measurements)
** Current wind speed in m/s (hover to see current wind gust speed)